createdAt,value
2023-03-26T00:00:15.058Z,11.65
2023-03-26T00:03:39.144Z,11.46
2023-03-26T00:07:03.304Z,11.31
2023-03-26T00:10:27.151Z,11.43
2023-03-26T00:13:49.322Z,11.48
2023-03-26T00:17:10.914Z,11.46
2023-03-26T00:20:35.611Z,11.72
2023-03-26T00:24:06.148Z,11.75
2023-03-26T00:27:27.799Z,11.77
2023-03-26T00:30:57.198Z,11.58
2023-03-26T00:34:23.028Z,10.84
2023-03-26T00:37:46.120Z,11.03
2023-03-26T00:41:18.148Z,10.93
2023-03-26T00:44:42.091Z,11.39
2023-03-26T00:48:05.931Z,11.38
2023-03-26T00:51:31.071Z,11.62
2023-03-26T00:54:52.741Z,11.48
2023-03-26T00:58:15.444Z,11.49
2023-03-26T01:01:39.903Z,11.67
2023-03-26T01:05:36.352Z,11.12
2023-03-26T01:09:00.523Z,11.19
2023-03-26T01:12:24.644Z,11.45
2023-03-26T01:15:51.105Z,11.36
2023-03-26T01:19:38.026Z,11.42
2023-03-26T01:23:05.413Z,11.52
2023-03-26T01:27:01.536Z,11.36
2023-03-26T01:30:42.537Z,11.42
2023-03-26T01:35:01.354Z,11.39
2023-03-26T01:38:31.085Z,11.48
2023-03-26T01:41:58.813Z,11.48
2023-03-26T01:45:28.452Z,11.31
2023-03-26T01:48:55.481Z,11.24
2023-03-26T01:52:25.113Z,11.12
2023-03-26T01:55:58.392Z,11.24
2023-03-26T01:59:41.337Z,11.00
2023-03-26T02:03:17.739Z,10.93
2023-03-26T02:06:48.032Z,10.73
2023-03-26T02:10:30.755Z,10.60
2023-03-26T02:13:53.197Z,10.64
2023-03-26T02:17:14.776Z,10.52
2023-03-26T02:20:40.122Z,10.49
2023-03-26T02:24:04.402Z,10.49
2023-03-26T02:27:26.306Z,10.53
2023-03-26T02:30:49.946Z,10.57
2023-03-26T02:34:11.612Z,10.36
2023-03-26T02:37:38.341Z,10.23
2023-03-26T02:41:00.262Z,10.18
2023-03-26T02:44:21.832Z,10.21
2023-03-26T02:47:43.899Z,10.26
2023-03-26T02:51:08.512Z,10.19
2023-03-26T02:54:30.234Z,10.21
2023-03-26T02:57:54.225Z,10.29
2023-03-26T03:01:18.592Z,10.29
2023-03-26T03:04:43.997Z,10.19
2023-03-26T03:08:06.041Z,10.14
2023-03-26T03:11:30.523Z,10.22
2023-03-26T03:14:52.095Z,10.11
2023-03-26T03:18:13.647Z,10.08
2023-03-26T03:21:35.696Z,10.15
2023-03-26T03:24:59.912Z,9.95
2023-03-26T03:28:23.888Z,9.78
2023-03-26T03:31:49.955Z,9.57
2023-03-26T03:35:13.760Z,9.56
2023-03-26T03:38:35.326Z,9.33
2023-03-26T03:41:59.782Z,9.51
2023-03-26T03:45:23.976Z,9.83
2023-03-26T03:48:50.736Z,10.04
2023-03-26T03:52:14.817Z,9.85
2023-03-26T03:55:38.362Z,9.78
2023-03-26T03:58:59.945Z,9.74
2023-03-26T04:02:30.600Z,9.67
2023-03-26T04:05:57.264Z,9.61
2023-03-26T04:09:19.274Z,9.69
2023-03-26T04:12:43.564Z,9.85
2023-03-26T04:16:05.477Z,9.73
2023-03-26T04:19:29.326Z,9.83
2023-03-26T04:22:50.993Z,9.73
2023-03-26T04:26:16.827Z,9.75
2023-03-26T04:29:43.024Z,9.60
2023-03-26T04:33:10.396Z,9.70
2023-03-26T04:36:36.833Z,9.51
2023-03-26T04:39:59.280Z,9.33
2023-03-26T04:43:20.879Z,9.33
2023-03-26T04:46:45.852Z,9.36
2023-03-26T04:50:12.028Z,9.58
2023-03-26T04:53:34.527Z,9.78
2023-03-26T04:57:01.148Z,10.02
2023-03-26T05:00:25.504Z,10.11
2023-03-26T05:03:50.106Z,9.95
2023-03-26T05:07:17.590Z,9.94
2023-03-26T05:10:39.216Z,9.93
2023-03-26T05:14:03.372Z,10.12
2023-03-26T05:17:25.416Z,10.29
2023-03-26T05:20:47.037Z,10.79
2023-03-26T05:24:08.688Z,11.07
2023-03-26T05:27:33.328Z,11.32
2023-03-26T05:30:55.550Z,11.40
2023-03-26T05:34:17.312Z,11.62
2023-03-26T05:37:41.400Z,11.67
2023-03-26T05:41:06.241Z,12.03
2023-03-26T05:44:27.962Z,12.00
2023-03-26T05:47:54.227Z,12.27
2023-03-26T05:51:16.146Z,12.27
2023-03-26T05:54:37.724Z,12.63
2023-03-26T05:57:59.417Z,12.95
2023-03-26T06:01:21.038Z,12.97
2023-03-26T06:04:47.740Z,13.07
2023-03-26T06:08:09.462Z,13.23
2023-03-26T06:11:34.721Z,13.18
2023-03-26T06:14:56.363Z,13.28
2023-03-26T06:18:18.795Z,13.76
2023-03-26T06:21:40.400Z,13.85
2023-03-26T06:25:02.036Z,13.81
2023-03-26T06:28:24.101Z,14.05
2023-03-26T06:31:45.900Z,14.54
2023-03-26T06:35:11.240Z,14.58
2023-03-26T06:38:33.018Z,14.44
2023-03-26T06:41:54.622Z,14.85
2023-03-26T06:45:16.705Z,14.30
2023-03-26T06:48:38.877Z,14.58
2023-03-26T06:52:02.977Z,15.03
2023-03-26T06:55:27.368Z,14.41
2023-03-26T06:58:51.468Z,14.88
2023-03-26T07:02:13.146Z,15.30
2023-03-26T07:05:37.443Z,15.30
2023-03-26T07:08:59.062Z,15.46
2023-03-26T07:12:23.243Z,16.18
2023-03-26T07:15:48.071Z,16.85
2023-03-26T07:19:12.162Z,16.04
2023-03-26T07:22:34.468Z,15.81
2023-03-26T07:25:56.405Z,16.02
2023-03-26T07:29:46.614Z,16.92
2023-03-26T07:33:21.116Z,17.55
2023-03-26T07:37:13.685Z,17.12
2023-03-26T07:40:51.882Z,16.42
2023-03-26T07:44:35.828Z,15.93
2023-03-26T07:48:00.391Z,16.29
2023-03-26T07:51:25.332Z,16.80
2023-03-26T07:54:47.361Z,17.29
2023-03-26T07:58:29.815Z,17.56
2023-03-26T08:02:51.077Z,17.86
2023-03-26T08:06:24.031Z,18.01
2023-03-26T08:10:02.025Z,17.42
2023-03-26T08:13:44.551Z,16.42
2023-03-26T08:17:21.332Z,15.95
2023-03-26T08:20:49.212Z,15.77
2023-03-26T08:24:25.333Z,16.45
2023-03-26T08:28:28.132Z,17.00
2023-03-26T08:31:53.129Z,16.38
2023-03-26T08:35:19.608Z,16.26
2023-03-26T08:38:41.268Z,16.15
2023-03-26T08:43:00.468Z,15.75
2023-03-26T08:46:59.370Z,15.74
2023-03-26T08:51:13.545Z,15.57
2023-03-26T08:54:52.255Z,15.58
2023-03-26T08:58:47.820Z,15.75
2023-03-26T09:02:51.071Z,15.47
2023-03-26T09:06:50.622Z,15.73
2023-03-26T09:10:14.589Z,15.74
2023-03-26T09:14:06.086Z,16.00
2023-03-26T09:17:46.564Z,15.84
2023-03-26T09:21:36.170Z,15.78
2023-03-26T09:25:08.847Z,15.78
2023-03-26T09:28:51.406Z,16.05
2023-03-26T09:32:50.008Z,16.06
2023-03-26T09:36:19.612Z,16.13
2023-03-26T09:39:53.245Z,16.13
2023-03-26T09:43:32.677Z,16.23
2023-03-26T09:47:23.648Z,16.67
2023-03-26T09:50:59.341Z,17.40
2023-03-26T09:54:56.982Z,17.42
2023-03-26T09:58:48.723Z,17.87
2023-03-26T10:02:16.116Z,18.34
2023-03-26T10:05:48.329Z,19.00
2023-03-26T10:09:44.872Z,19.41
2023-03-26T10:13:18.085Z,18.59
2023-03-26T10:16:56.553Z,18.90
2023-03-26T10:20:49.390Z,19.00
2023-03-26T10:24:13.968Z,18.40
2023-03-26T10:27:38.579Z,17.65
2023-03-26T10:31:06.496Z,17.07
2023-03-26T10:34:58.892Z,16.98
2023-03-26T10:38:42.212Z,16.66
2023-03-26T10:42:24.589Z,15.97
2023-03-26T10:46:25.449Z,15.50
2023-03-26T10:50:05.426Z,14.88
2023-03-26T10:53:57.125Z,14.57
2023-03-26T10:57:33.842Z,14.84
2023-03-26T11:01:00.896Z,16.09
2023-03-26T11:04:48.492Z,16.77
2023-03-26T11:08:31.658Z,17.39
2023-03-26T11:12:26.991Z,17.48
2023-03-26T11:16:02.806Z,17.80
2023-03-26T11:19:32.848Z,17.39
2023-03-26T11:23:14.889Z,17.28
2023-03-26T11:26:49.326Z,16.70
2023-03-26T11:30:32.620Z,17.07
2023-03-26T11:33:58.825Z,17.42
2023-03-26T11:37:33.353Z,17.87
2023-03-26T11:40:57.351Z,17.96
2023-03-26T11:44:37.773Z,17.65
2023-03-26T11:48:15.680Z,17.73
2023-03-26T11:51:42.892Z,18.41
2023-03-26T11:55:08.059Z,19.44
2023-03-26T11:58:52.099Z,19.85
2023-03-26T12:02:17.178Z,20.45
2023-03-26T12:05:49.238Z,19.62
2023-03-26T12:09:20.164Z,20.36
2023-03-26T12:12:42.457Z,20.67
2023-03-26T12:16:17.634Z,20.95
2023-03-26T12:19:44.613Z,20.52
2023-03-26T12:23:46.379Z,19.95
2023-03-26T12:27:23.107Z,19.50
2023-03-26T12:31:07.519Z,19.82
2023-03-26T12:34:35.457Z,19.53
2023-03-26T12:38:17.209Z,19.17
2023-03-26T12:44:43.803Z,18.73
2023-03-26T12:45:29.733Z,18.92
2023-03-26T12:48:56.862Z,18.95
2023-03-26T12:52:30.937Z,18.89
2023-03-26T12:56:10.549Z,18.73
2023-03-26T12:59:49.472Z,18.89
2023-03-26T13:03:41.860Z,18.92
2023-03-26T13:07:25.163Z,18.45
2023-03-26T13:11:02.812Z,18.34
2023-03-26T13:14:46.242Z,18.41
2023-03-26T13:18:48.082Z,18.35
2023-03-26T13:22:24.566Z,18.45
2023-03-26T13:25:52.063Z,18.75
2023-03-26T13:29:39.671Z,19.02
2023-03-26T13:33:16.082Z,18.97
2023-03-26T13:36:58.080Z,18.61
2023-03-26T13:40:55.214Z,18.44
2023-03-26T13:44:48.541Z,18.41
2023-03-26T13:48:27.172Z,18.44
2023-03-26T13:51:48.593Z,18.38
2023-03-26T13:55:31.909Z,18.21
2023-03-26T13:59:03.674Z,18.21
2023-03-26T14:02:39.196Z,18.18
2023-03-26T14:06:06.883Z,18.15
2023-03-26T14:09:55.423Z,18.37
2023-03-26T14:13:26.981Z,18.59
2023-03-26T14:16:54.064Z,18.41
2023-03-26T14:20:20.984Z,18.41
2023-03-26T14:24:09.654Z,18.40
2023-03-26T14:27:49.587Z,18.22
2023-03-26T14:31:19.550Z,18.44
2023-03-26T14:35:18.579Z,18.58
2023-03-26T14:38:59.345Z,18.45
2023-03-26T14:42:43.495Z,18.52
2023-03-26T14:46:17.079Z,18.62
2023-03-26T14:50:03.954Z,18.70
2023-03-26T14:53:34.713Z,18.79
2023-03-26T14:57:24.198Z,18.89
2023-03-26T15:01:07.714Z,18.69
2023-03-26T15:04:31.548Z,18.69
2023-03-26T15:08:41.025Z,18.51
2023-03-26T15:12:32.983Z,18.52
2023-03-26T15:16:12.938Z,18.66
2023-03-26T15:19:55.657Z,19.07
2023-03-26T15:23:54.872Z,19.38
2023-03-26T15:27:57.378Z,19.03
2023-03-26T15:31:30.999Z,18.76
2023-03-26T15:34:57.667Z,18.45
2023-03-26T15:38:41.457Z,18.31
2023-03-26T15:42:11.772Z,18.03
2023-03-26T15:45:48.622Z,17.84
2023-03-26T15:49:16.759Z,17.75
2023-03-26T15:52:41.959Z,17.70
2023-03-26T15:56:23.863Z,17.63
2023-03-26T16:00:12.511Z,17.65
2023-03-26T16:03:44.747Z,17.50
2023-03-26T16:07:29.125Z,17.35
2023-03-26T16:10:58.042Z,17.32
2023-03-26T16:14:24.118Z,17.17
2023-03-26T16:18:05.209Z,17.00
2023-03-26T16:21:46.437Z,17.01
2023-03-26T16:25:28.544Z,16.94
2023-03-26T16:28:52.974Z,16.90
2023-03-26T16:32:41.598Z,16.71
2023-03-26T16:36:18.467Z,16.66
2023-03-26T16:39:44.267Z,16.64
2023-03-26T16:43:19.111Z,16.45
2023-03-26T16:46:56.580Z,16.36
2023-03-26T16:50:26.005Z,16.23
2023-03-26T16:54:05.376Z,16.18
2023-03-26T16:57:37.036Z,16.34
2023-03-26T17:01:17.644Z,16.63
2023-03-26T17:04:47.511Z,16.92
2023-03-26T17:08:36.068Z,17.00
2023-03-26T17:12:24.185Z,17.15
2023-03-26T17:16:14.592Z,17.07
2023-03-26T17:19:44.750Z,16.61
2023-03-26T17:23:12.521Z,16.33
2023-03-26T17:26:46.898Z,16.16
2023-03-26T17:30:23.561Z,16.06
2023-03-26T17:33:45.542Z,16.00
2023-03-26T17:37:27.954Z,15.85
2023-03-26T17:40:56.115Z,15.81
2023-03-26T17:44:36.610Z,15.80
2023-03-26T17:48:09.633Z,15.71
2023-03-26T17:51:46.496Z,15.74
2023-03-26T17:55:09.982Z,15.67
2023-03-26T17:58:42.839Z,15.66
2023-03-26T18:02:17.643Z,15.67
2023-03-26T18:05:42.306Z,15.67
2023-03-26T18:09:24.902Z,15.88
2023-03-26T18:12:55.620Z,16.28
2023-03-26T18:16:20.991Z,16.55
2023-03-26T18:20:09.787Z,16.80
2023-03-26T18:23:49.120Z,17.01
2023-03-26T18:27:12.428Z,16.66
2023-03-26T18:30:46.973Z,16.28
2023-03-26T18:34:24.366Z,16.02
2023-03-26T18:37:53.508Z,15.84
2023-03-26T18:41:41.826Z,15.74
2023-03-26T18:45:12.118Z,15.77
2023-03-26T18:48:33.894Z,15.66
2023-03-26T18:51:58.551Z,15.54
2023-03-26T18:55:20.295Z,15.51
2023-03-26T18:58:43.867Z,15.49
2023-03-26T19:02:13.137Z,15.56
2023-03-26T19:05:38.506Z,15.51
2023-03-26T19:09:30.269Z,15.50
2023-03-26T19:12:58.121Z,15.46
2023-03-26T19:16:24.210Z,15.37
2023-03-26T19:19:48.359Z,15.43
2023-03-26T19:23:15.122Z,15.35
2023-03-26T19:26:38.971Z,15.37
2023-03-26T19:30:05.610Z,15.37
2023-03-26T19:33:34.666Z,15.39
2023-03-26T19:37:02.926Z,15.36
2023-03-26T19:40:30.066Z,15.30
2023-03-26T19:43:55.950Z,15.19
2023-03-26T19:47:19.688Z,15.13
2023-03-26T19:50:45.944Z,15.06
2023-03-26T19:54:19.252Z,14.99
2023-03-26T19:57:41.108Z,14.95
2023-03-26T20:01:04.548Z,15.00
2023-03-26T20:04:27.270Z,14.95
2023-03-26T20:07:52.658Z,14.92
2023-03-26T20:11:33.240Z,14.79
2023-03-26T20:15:00.135Z,14.67
2023-03-26T20:18:25.638Z,14.58
2023-03-26T20:21:47.879Z,14.58
2023-03-26T20:25:33.794Z,14.58
2023-03-26T20:28:56.168Z,14.54
2023-03-26T20:32:23.619Z,14.45
2023-03-26T20:35:49.483Z,14.38
2023-03-26T20:39:13.728Z,14.22
2023-03-26T20:42:36.507Z,14.24
2023-03-26T20:46:00.827Z,14.24
2023-03-26T20:49:22.437Z,14.37
2023-03-26T20:52:44.569Z,14.26
2023-03-26T20:56:20.052Z,14.34
2023-03-26T20:59:42.150Z,14.30
2023-03-26T21:03:08.541Z,14.37
2023-03-26T21:06:30.273Z,14.41
2023-03-26T21:09:57.913Z,14.38
2023-03-26T21:13:53.913Z,14.33
2023-03-26T21:17:18.625Z,14.37
2023-03-26T21:20:48.016Z,14.43
2023-03-26T21:24:43.367Z,14.44
2023-03-26T21:28:29.162Z,14.36
2023-03-26T21:32:01.576Z,14.50
2023-03-26T21:35:25.856Z,14.41
2023-03-26T21:38:47.934Z,14.48
2023-03-26T21:42:11.139Z,14.34
2023-03-26T21:45:35.699Z,14.47
2023-03-26T21:49:00.237Z,14.45
2023-03-26T21:52:27.373Z,14.22
2023-03-26T21:55:54.924Z,14.05
2023-03-26T21:59:37.799Z,14.06
2023-03-26T22:03:11.650Z,13.90
2023-03-26T22:06:46.192Z,13.64
2023-03-26T22:10:10.023Z,13.54
2023-03-26T22:13:31.618Z,13.48
2023-03-26T22:16:53.283Z,13.45
2023-03-26T22:20:21.142Z,13.40
2023-03-26T22:23:50.131Z,13.30
2023-03-26T22:27:13.609Z,13.21
2023-03-26T22:30:37.521Z,13.23
2023-03-26T22:34:01.906Z,13.16
2023-03-26T22:37:23.815Z,13.23
2023-03-26T22:40:56.217Z,13.41
2023-03-26T22:44:20.776Z,13.47
2023-03-26T22:47:42.603Z,13.53
2023-03-26T22:51:06.490Z,13.57
2023-03-26T22:54:30.464Z,13.26
2023-03-26T22:57:52.576Z,13.24
2023-03-26T23:01:18.084Z,13.21
2023-03-26T23:04:39.821Z,13.17
2023-03-26T23:08:01.489Z,12.99
2023-03-26T23:11:26.354Z,12.80
2023-03-26T23:14:53.070Z,12.68
2023-03-26T23:18:14.668Z,12.70
2023-03-26T23:21:37.802Z,12.68
2023-03-26T23:24:59.416Z,12.73
2023-03-26T23:28:21.798Z,12.79
2023-03-26T23:31:43.457Z,12.79
2023-03-26T23:35:06.122Z,12.78
2023-03-26T23:38:29.198Z,12.72
2023-03-26T23:42:06.000Z,12.61
2023-03-26T23:45:30.875Z,12.46
2023-03-26T23:48:53.245Z,12.48
2023-03-26T23:52:17.220Z,12.63
2023-03-26T23:55:41.316Z,12.46
2023-03-26T23:59:06.102Z,12.45
